Diablo, Washington
Current Conditions -  °F | °C
As of 6:35 PM on Sunday 21 Dec 2014 (Local Time) from KAWO Reporting Station
Clear Clear  
Wind Chill:   Ceiling: Unl
Heat Index:   Visibility: 10mi
Dew Point:   Wind: 0mph
Humidity: 87%   Direction: NA
Pressure: 30.06"   Gusts: NA
Location:  48.571°N, 121.561°W
Report Text: KAWO 220235Z AUTO 00000KT 10SM CLR 07/05 A3006 RMK AO1
Loading
Personal Weather Stations






























Interactive Weather Map New forecast layout! Learn more

10-Day Weather Forecast

Advertisements
Track Severe Weather on mobile